sensor_id;sensor_type;location;lat;lon;timestamp;pressure;altitude;pressure_sealevel;temperature;humidity
21803;BME280;18591;47.080;22.214;2022-09-09T00:00:25;99215.91;;;25.45;50.08
21803;BME280;18591;47.080;22.214;2022-09-09T00:02:27;99222.97;;;25.47;49.76
21803;BME280;18591;47.080;22.214;2022-09-09T00:04:34;99225.88;;;25.46;49.96
21803;BME280;18591;47.080;22.214;2022-09-09T00:06:53;99244.13;;;25.47;49.51
21803;BME280;18591;47.080;22.214;2022-09-09T00:09:16;99240.91;;;25.51;49.68
21803;BME280;18591;47.080;22.214;2022-09-09T00:11:26;99245.34;;;25.52;50.04
21803;BME280;18591;47.080;22.214;2022-09-09T00:15:42;99261.53;;;25.55;50.33
21803;BME280;18591;47.080;22.214;2022-09-09T00:17:58;99259.63;;;25.56;50.84
21803;BME280;18591;47.080;22.214;2022-09-09T00:20:21;99274.75;;;25.52;50.79
21803;BME280;18591;47.080;22.214;2022-09-09T00:22:30;99284.56;;;25.54;50.59
21803;BME280;18591;47.080;22.214;2022-09-09T00:24:44;99314.81;;;25.54;51.07
21803;BME280;18591;47.080;22.214;2022-09-09T00:26:51;99319.53;;;25.62;51.26
21803;BME280;18591;47.080;22.214;2022-09-09T00:29:00;99323.13;;;25.62;51.37
21803;BME280;18591;47.080;22.214;2022-09-09T00:31:23;99345.47;;;25.59;52.26
21803;BME280;18591;47.080;22.214;2022-09-09T00:33:27;99369.03;;;25.62;51.80
21803;BME280;18591;47.080;22.214;2022-09-09T00:35:32;99387.91;;;25.57;52.52
21803;BME280;18591;47.080;22.214;2022-09-09T00:37:37;99427.28;;;25.57;53.71
21803;BME280;18591;47.080;22.214;2022-09-09T00:39:45;99437.88;;;25.52;53.74
21803;BME280;18591;47.080;22.214;2022-09-09T00:44:30;99429.22;;;25.29;56.93
21803;BME280;18591;47.080;22.214;2022-09-09T00:47:09;99420.50;;;25.16;57.95
21803;BME280;18591;47.080;22.214;2022-09-09T00:57:01;99427.06;;;25.05;58.69
21803;BME280;18591;47.080;22.214;2022-09-09T01:01:12;99431.66;;;24.87;59.15
21803;BME280;18591;47.080;22.214;2022-09-09T01:03:34;99436.78;;;24.72;59.84
21803;BME280;18591;47.080;22.214;2022-09-09T01:08:27;99434.25;;;24.51;61.12
21803;BME280;18591;47.080;22.214;2022-09-09T01:10:44;99424.84;;;24.53;60.13
21803;BME280;18591;47.080;22.214;2022-09-09T01:12:52;99409.81;;;24.48;59.62
21803;BME280;18591;47.080;22.214;2022-09-09T01:15:19;99408.41;;;24.34;60.98
21803;BME280;18591;47.080;22.214;2022-09-09T01:17:30;99416.03;;;24.40;60.54
21803;BME280;18591;47.080;22.214;2022-09-09T01:19:49;99408.72;;;24.31;60.63
21803;BME280;18591;47.080;22.214;2022-09-09T01:22:53;99403.66;;;24.26;61.80
21803;BME280;18591;47.080;22.214;2022-09-09T01:24:33;99406.97;;;24.30;60.87
21803;BME280;18591;47.080;22.214;2022-09-09T01:27:07;99417.06;;;24.39;59.60
21803;BME280;18591;47.080;22.214;2022-09-09T01:29:14;99419.38;;;24.44;60.29
21803;BME280;18591;47.080;22.214;2022-09-09T01:31:31;99414.72;;;24.44;60.71
21803;BME280;18591;47.080;22.214;2022-09-09T01:33:34;99411.13;;;24.53;59.57
21803;BME280;18591;47.080;22.214;2022-09-09T01:35:49;99420.94;;;24.56;60.01
21803;BME280;18591;47.080;22.214;2022-09-09T01:37:59;99418.03;;;24.58;59.83
21803;BME280;18591;47.080;22.214;2022-09-09T01:40:02;99413.56;;;24.57;59.24
21803;BME280;18591;47.080;22.214;2022-09-09T01:42:08;99405.03;;;24.60;59.29
21803;BME280;18591;47.080;22.214;2022-09-09T01:44:12;99409.34;;;24.62;58.42
21803;BME280;18591;47.080;22.214;2022-09-09T01:46:21;99404.41;;;24.66;59.00
21803;BME280;18591;47.080;22.214;2022-09-09T01:48:25;99393.28;;;24.67;59.37
21803;BME280;18591;47.080;22.214;2022-09-09T01:50:37;99380.50;;;24.48;59.87
21803;BME280;18591;47.080;22.214;2022-09-09T01:52:40;99381.25;;;24.41;60.54
21803;BME280;18591;47.080;22.214;2022-09-09T01:54:46;99385.41;;;24.35;60.97
21803;BME280;18591;47.080;22.214;2022-09-09T02:03:35;99396.63;;;24.04;64.04
21803;BME280;18591;47.080;22.214;2022-09-09T02:06:00;99422.13;;;23.87;65.72
21803;BME280;18591;47.080;22.214;2022-09-09T02:08:11;99423.81;;;23.98;64.51
21803;BME280;18591;47.080;22.214;2022-09-09T02:12:49;99412.56;;;24.01;63.46
21803;BME280;18591;47.080;22.214;2022-09-09T02:15:01;99422.38;;;23.84;65.16
21803;BME280;18591;47.080;22.214;2022-09-09T02:17:19;99421.69;;;23.72;64.99
21803;BME280;18591;47.080;22.214;2022-09-09T02:19:44;99408.38;;;23.67;66.00
21803;BME280;18591;47.080;22.214;2022-09-09T02:21:59;99418.06;;;23.72;65.34
21803;BME280;18591;47.080;22.214;2022-09-09T02:24:07;99414.00;;;23.66;66.27
21803;BME280;18591;47.080;22.214;2022-09-09T02:26:19;99412.13;;;23.66;64.60
21803;BME280;18591;47.080;22.214;2022-09-09T02:28:33;99409.81;;;23.72;64.38
21803;BME280;18591;47.080;22.214;2022-09-09T02:30:37;99408.53;;;23.76;64.88
21803;BME280;18591;47.080;22.214;2022-09-09T02:32:43;99398.84;;;23.81;64.58
21803;BME280;18591;47.080;22.214;2022-09-09T02:34:50;99396.41;;;23.88;63.87
21803;BME280;18591;47.080;22.214;2022-09-09T02:36:57;99383.56;;;23.79;64.88
21803;BME280;18591;47.080;22.214;2022-09-09T02:39:03;99382.41;;;23.72;65.27
21803;BME280;18591;47.080;22.214;2022-09-09T02:41:08;99366.69;;;23.64;64.79
21803;BME280;18591;47.080;22.214;2022-09-09T02:43:14;99351.34;;;23.71;64.67
21803;BME280;18591;47.080;22.214;2022-09-09T02:45:22;99339.25;;;23.64;64.79
21803;BME280;18591;47.080;22.214;2022-09-09T02:47:36;99352.06;;;23.63;65.39
21803;BME280;18591;47.080;22.214;2022-09-09T02:52:19;99339.25;;;23.64;64.71
21803;BME280;18591;47.080;22.214;2022-09-09T02:54:31;99331.59;;;23.58;65.17
21803;BME280;18591;47.080;22.214;2022-09-09T02:56:41;99333.22;;;23.51;65.11
21803;BME280;18591;47.080;22.214;2022-09-09T02:58:46;99332.63;;;23.47;64.70
21803;BME280;18591;47.080;22.214;2022-09-09T03:00:50;99341.00;;;23.45;64.73
21803;BME280;18591;47.080;22.214;2022-09-09T03:02:54;99358.19;;;23.38;64.63
21803;BME280;18591;47.080;22.214;2022-09-09T03:04:56;99361.94;;;23.17;64.99
21803;BME280;18591;47.080;22.214;2022-09-09T03:06:59;99365.53;;;23.18;64.94
21803;BME280;18591;47.080;22.214;2022-09-09T03:09:01;99376.34;;;23.10;65.36
21803;BME280;18591;47.080;22.214;2022-09-09T03:11:04;99382.53;;;23.12;65.55
21803;BME280;18591;47.080;22.214;2022-09-09T03:13:09;99390.06;;;23.10;65.86
21803;BME280;18591;47.080;22.214;2022-09-09T03:15:14;99390.91;;;23.10;65.93
21803;BME280;18591;47.080;22.214;2022-09-09T03:17:17;99395.38;;;23.11;65.40
21803;BME280;18591;47.080;22.214;2022-09-09T03:19:25;99381.66;;;23.11;65.83
21803;BME280;18591;47.080;22.214;2022-09-09T03:21:27;99372.88;;;23.08;66.34
21803;BME280;18591;47.080;22.214;2022-09-09T03:23:29;99376.16;;;23.01;66.43
21803;BME280;18591;47.080;22.214;2022-09-09T03:25:35;99373.72;;;22.98;66.36
21803;BME280;18591;47.080;22.214;2022-09-09T03:27:37;99367.47;;;22.96;66.35
21803;BME280;18591;47.080;22.214;2022-09-09T03:29:39;99362.94;;;22.97;66.28
21803;BME280;18591;47.080;22.214;2022-09-09T03:31:45;99352.53;;;23.00;66.27
21803;BME280;18591;47.080;22.214;2022-09-09T03:33:53;99360.41;;;22.94;67.27
21803;BME280;18591;47.080;22.214;2022-09-09T03:35:56;99346.03;;;23.01;66.40
21803;BME280;18591;47.080;22.214;2022-09-09T03:37:59;99346.03;;;23.01;66.05
21803;BME280;18591;47.080;22.214;2022-09-09T03:40:08;99343.59;;;22.98;66.18
21803;BME280;18591;47.080;22.214;2022-09-09T03:42:14;99339.13;;;22.97;66.03
21803;BME280;18591;47.080;22.214;2022-09-09T03:44:23;99338.28;;;22.97;66.03
21803;BME280;18591;47.080;22.214;2022-09-09T03:46:26;99344.31;;;23.00;66.42
21803;BME280;18591;47.080;22.214;2022-09-09T03:48:29;99344.31;;;23.00;66.20
21803;BME280;18591;47.080;22.214;2022-09-09T03:50:32;99343.75;;;22.97;66.11
21803;BME280;18591;47.080;22.214;2022-09-09T03:52:39;99334.38;;;22.99;66.04
21803;BME280;18591;47.080;22.214;2022-09-09T03:54:47;99335.66;;;23.05;66.07
21803;BME280;18591;47.080;22.214;2022-09-09T03:56:50;99325.59;;;23.15;65.82
21803;BME280;18591;47.080;22.214;2022-09-09T03:58:52;99324.13;;;23.21;65.57
21803;BME280;18591;47.080;22.214;2022-09-09T04:01:01;99328.16;;;23.26;65.70
21803;BME280;18591;47.080;22.214;2022-09-09T04:03:04;99328.16;;;23.26;65.79
21803;BME280;18591;47.080;22.214;2022-09-09T04:05:07;99323.41;;;23.29;65.28
21803;BME280;18591;47.080;22.214;2022-09-09T04:07:10;99316.03;;;23.29;65.33
21803;BME280;18591;47.080;22.214;2022-09-09T04:09:14;99318.06;;;23.27;65.30
21803;BME280;18591;47.080;22.214;2022-09-09T04:11:17;99323.13;;;23.32;65.23
21803;BME280;18591;47.080;22.214;2022-09-09T04:13:22;99326.44;;;23.35;65.26
21803;BME280;18591;47.080;22.214;2022-09-09T04:15:24;99305.81;;;23.31;65.26
21803;BME280;18591;47.080;22.214;2022-09-09T04:17:26;99304.94;;;23.31;65.36
21803;BME280;18591;47.080;22.214;2022-09-09T04:19:28;99305.25;;;23.28;65.46
21803;BME280;18591;47.080;22.214;2022-09-09T04:21:31;99303.66;;;23.25;65.53
21803;BME280;18591;47.080;22.214;2022-09-09T04:23:36;99297.72;;;23.30;65.13
21803;BME280;18591;47.080;22.214;2022-09-09T04:25:47;99295.16;;;23.28;65.62
21803;BME280;18591;47.080;22.214;2022-09-09T04:27:56;99292.53;;;23.26;65.62
21803;BME280;18591;47.080;22.214;2022-09-09T04:29:59;99290.22;;;23.22;64.85
21803;BME280;18591;47.080;22.214;2022-09-09T04:32:06;99287.34;;;23.23;64.80
21803;BME280;18591;47.080;22.214;2022-09-09T04:34:11;99301.34;;;23.20;65.25
21803;BME280;18591;47.080;22.214;2022-09-09T04:36:15;99299.16;;;23.14;65.29
21803;BME280;18591;47.080;22.214;2022-09-09T04:38:18;99312.63;;;23.17;65.07
21803;BME280;18591;47.080;22.214;2022-09-09T04:40:21;99301.94;;;23.04;65.50
21803;BME280;18591;47.080;22.214;2022-09-09T04:42:24;99306.41;;;23.06;65.97
21803;BME280;18591;47.080;22.214;2022-09-09T04:44:30;99306.25;;;22.97;66.23
21803;BME280;18591;47.080;22.214;2022-09-09T04:46:33;99308.69;;;23.00;65.79
21803;BME280;18591;47.080;22.214;2022-09-09T04:48:36;99303.53;;;22.97;65.87
21803;BME280;18591;47.080;22.214;2022-09-09T04:50:40;99302.00;;;22.83;66.84
21803;BME280;18591;47.080;22.214;2022-09-09T04:52:45;99292.22;;;22.91;66.20
21803;BME280;18591;47.080;22.214;2022-09-09T04:54:48;99295.56;;;22.94;65.85
21803;BME280;18591;47.080;22.214;2022-09-09T04:56:50;99296.72;;;22.92;66.19
21803;BME280;18591;47.080;22.214;2022-09-09T04:58:53;99297.41;;;22.94;66.25
21803;BME280;18591;47.080;22.214;2022-09-09T05:03:06;99287.47;;;22.93;66.29
21803;BME280;18591;47.080;22.214;2022-09-09T05:05:10;99291.69;;;22.97;66.05
21803;BME280;18591;47.080;22.214;2022-09-09T05:07:13;99287.03;;;22.88;66.71
21803;BME280;18591;47.080;22.214;2022-09-09T05:09:16;99288.50;;;22.92;66.39
21803;BME280;18591;47.080;22.214;2022-09-09T05:11:28;99289.66;;;22.89;66.75
21803;BME280;18591;47.080;22.214;2022-09-09T05:13:50;99287.19;;;22.96;66.74
21803;BME280;18591;47.080;22.214;2022-09-09T05:15:54;99290.78;;;22.96;66.29
21803;BME280;18591;47.080;22.214;2022-09-09T05:17:58;99289.19;;;22.94;66.45
21803;BME280;18591;47.080;22.214;2022-09-09T05:20:03;99291.41;;;23.00;66.26
21803;BME280;18591;47.080;22.214;2022-09-09T05:22:10;99287.94;;;22.98;67.00
21803;BME280;18591;47.080;22.214;2022-09-09T05:24:21;99286.31;;;22.95;66.84
21803;BME280;18591;47.080;22.214;2022-09-09T05:26:28;99283.31;;;22.98;66.39
21803;BME280;18591;47.080;22.214;2022-09-09T05:28:34;99283.91;;;23.02;66.26
21803;BME280;18591;47.080;22.214;2022-09-09T05:30:37;99287.09;;;23.07;66.40
21803;BME280;18591;47.080;22.214;2022-09-09T05:32:43;99291.41;;;23.10;66.59
21803;BME280;18591;47.080;22.214;2022-09-09T05:34:46;99291.25;;;23.11;66.46
21803;BME280;18591;47.080;22.214;2022-09-09T05:36:49;99290.69;;;23.08;66.15
21803;BME280;18591;47.080;22.214;2022-09-09T05:38:52;99295.44;;;23.06;66.57
21803;BME280;18591;47.080;22.214;2022-09-09T05:40:59;99299.03;;;23.16;65.97
21803;BME280;18591;47.080;22.214;2022-09-09T05:43:02;99309.88;;;23.17;66.04
21803;BME280;18591;47.080;22.214;2022-09-09T05:45:05;99302.63;;;23.16;65.81
21803;BME280;18591;47.080;22.214;2022-09-09T05:47:09;99303.66;;;23.15;65.65
21803;BME280;18591;47.080;22.214;2022-09-09T05:49:12;99310.56;;;23.19;65.90
21803;BME280;18591;47.080;22.214;2022-09-09T05:51:23;99311.59;;;23.18;66.12
21803;BME280;18591;47.080;22.214;2022-09-09T05:53:27;99296.59;;;23.22;65.74
21803;BME280;18591;47.080;22.214;2022-09-09T05:55:34;99308.56;;;23.21;65.95
21803;BME280;18591;47.080;22.214;2022-09-09T05:57:37;99301.34;;;23.20;66.31
21803;BME280;18591;47.080;22.214;2022-09-09T05:59:41;99291.97;;;23.23;66.00
21803;BME280;18591;47.080;22.214;2022-09-09T06:01:44;99294.13;;;23.19;66.06
21803;BME280;18591;47.080;22.214;2022-09-09T06:04:05;99290.81;;;23.25;65.81
21803;BME280;18591;47.080;22.214;2022-09-09T06:06:12;99286.63;;;23.21;65.58
21803;BME280;18591;47.080;22.214;2022-09-09T06:08:15;99298.44;;;23.22;65.53
21803;BME280;18591;47.080;22.214;2022-09-09T06:10:18;99295.69;;;23.32;65.60
21803;BME280;18591;47.080;22.214;2022-09-09T06:12:21;99297.72;;;23.39;65.85
21803;BME280;18591;47.080;22.214;2022-09-09T06:14:23;99294.13;;;23.39;65.56
21803;BME280;18591;47.080;22.214;2022-09-09T06:16:28;99292.66;;;23.35;66.00
21803;BME280;18591;47.080;22.214;2022-09-09T06:18:32;99294.41;;;23.36;66.18
21803;BME280;18591;47.080;22.214;2022-09-09T06:20:36;99304.78;;;23.42;66.03
21803;BME280;18591;47.080;22.214;2022-09-09T06:22:40;99306.06;;;23.47;66.23
21803;BME280;18591;47.080;22.214;2022-09-09T06:24:43;99306.34;;;23.54;65.70
21803;BME280;18591;47.080;22.214;2022-09-09T06:26:46;99304.63;;;23.53;66.00
21803;BME280;18591;47.080;22.214;2022-09-09T06:28:56;99307.81;;;23.58;65.96
21803;BME280;18591;47.080;22.214;2022-09-09T06:31:04;99310.25;;;23.61;66.33
21803;BME280;18591;47.080;22.214;2022-09-09T06:33:08;99305.47;;;23.63;66.30
21803;BME280;18591;47.080;22.214;2022-09-09T06:35:11;99302.28;;;23.68;65.80
21803;BME280;18591;47.080;22.214;2022-09-09T06:37:13;99299.97;;;23.83;65.78
21803;BME280;18591;47.080;22.214;2022-09-09T06:39:21;99304.84;;;23.89;65.58
21803;BME280;18591;47.080;22.214;2022-09-09T06:41:26;99305.53;;;24.01;66.12
21803;BME280;18591;47.080;22.214;2022-09-09T06:43:29;99302.03;;;24.08;65.09
21803;BME280;18591;47.080;22.214;2022-09-09T06:45:35;99309.25;;;24.09;64.76
21803;BME280;18591;47.080;22.214;2022-09-09T06:47:38;99314.91;;;24.08;65.42
21803;BME280;18591;47.080;22.214;2022-09-09T06:49:40;99313.56;;;24.12;65.27
21803;BME280;18591;47.080;22.214;2022-09-09T06:51:48;99320.53;;;24.06;65.40
21803;BME280;18591;47.080;22.214;2022-09-09T06:53:53;99315.66;;;24.00;66.13
21803;BME280;18591;47.080;22.214;2022-09-09T06:55:58;99319.81;;;24.04;65.78
21803;BME280;18591;47.080;22.214;2022-09-09T06:58:00;99313.16;;;24.07;65.36
21803;BME280;18591;47.080;22.214;2022-09-09T07:00:04;99312.59;;;24.03;65.06
21803;BME280;18591;47.080;22.214;2022-09-09T07:02:07;99320.22;;;24.09;64.88
21803;BME280;18591;47.080;22.214;2022-09-09T07:04:10;99325.13;;;24.16;64.98
21803;BME280;18591;47.080;22.214;2022-09-09T07:06:16;99323.38;;;24.15;65.25
21803;BME280;18591;47.080;22.214;2022-09-09T07:08:19;99332.03;;;24.20;65.14
21803;BME280;18591;47.080;22.214;2022-09-09T07:10:25;99326.94;;;24.25;65.00
21803;BME280;18591;47.080;22.214;2022-09-09T07:12:27;99333.44;;;24.33;64.77
21803;BME280;18591;47.080;22.214;2022-09-09T07:14:33;99337.34;;;24.31;64.96
21803;BME280;18591;47.080;22.214;2022-09-09T07:16:44;99339.91;;;24.32;65.08
21803;BME280;18591;47.080;22.214;2022-09-09T07:18:49;99339.47;;;24.37;64.99
21803;BME280;18591;47.080;22.214;2022-09-09T07:20:53;99344.38;;;24.43;64.57
21803;BME280;18591;47.080;22.214;2022-09-09T07:22:57;99343.97;;;24.38;65.20
21803;BME280;18591;47.080;22.214;2022-09-09T07:25:00;99344.38;;;24.43;64.85
21803;BME280;18591;47.080;22.214;2022-09-09T07:27:06;99335.69;;;24.48;64.97
21803;BME280;18591;47.080;22.214;2022-09-09T07:29:10;99339.00;;;24.51;65.03
21803;BME280;18591;47.080;22.214;2022-09-09T07:31:28;99338.16;;;24.51;64.69
21803;BME280;18591;47.080;22.214;2022-09-09T07:33:34;99342.16;;;24.57;64.58
21803;BME280;18591;47.080;22.214;2022-09-09T07:35:37;99341.00;;;24.59;64.67
21803;BME280;18591;47.080;22.214;2022-09-09T07:37:39;99348.59;;;24.65;64.44
21803;BME280;18591;47.080;22.214;2022-09-09T07:39:43;99344.88;;;24.66;63.99
21803;BME280;18591;47.080;22.214;2022-09-09T07:41:48;99345.94;;;24.73;64.47
21803;BME280;18591;47.080;22.214;2022-09-09T07:43:54;99351.00;;;24.78;64.50
21803;BME280;18591;47.080;22.214;2022-09-09T07:45:58;99352.41;;;24.82;64.37
21803;BME280;18591;47.080;22.214;2022-09-09T07:48:03;99355.56;;;24.87;63.95
21803;BME280;18591;47.080;22.214;2022-09-09T07:50:06;99347.16;;;24.89;64.22
21803;BME280;18591;47.080;22.214;2022-09-09T07:52:08;99348.91;;;24.90;64.28
21803;BME280;18591;47.080;22.214;2022-09-09T07:54:15;99353.81;;;24.86;64.04
21803;BME280;18591;47.080;22.214;2022-09-09T07:56:19;99353.91;;;24.94;63.67
21803;BME280;18591;47.080;22.214;2022-09-09T07:58:24;99354.47;;;24.98;64.08
21803;BME280;18591;47.080;22.214;2022-09-09T08:00:27;99353.00;;;25.04;64.24
21803;BME280;18591;47.080;22.214;2022-09-09T08:02:31;99357.16;;;25.08;64.19
21803;BME280;18591;47.080;22.214;2022-09-09T08:04:35;99361.00;;;25.15;63.88
21803;BME280;18591;47.080;22.214;2022-09-09T08:06:39;99360.59;;;25.10;64.00
21803;BME280;18591;47.080;22.214;2022-09-09T08:08:44;99363.50;;;25.18;63.94
21803;BME280;18591;47.080;22.214;2022-09-09T08:10:47;99359.47;;;25.30;63.60
21803;BME280;18591;47.080;22.214;2022-09-09T08:12:49;99365.34;;;25.53;63.32
21803;BME280;18591;47.080;22.214;2022-09-09T08:15:12;99350.75;;;25.79;63.65
21803;BME280;18591;47.080;22.214;2022-09-09T08:17:14;99351.63;;;25.97;63.46
21803;BME280;18591;47.080;22.214;2022-09-09T08:19:17;99355.66;;;26.11;62.72
21803;BME280;18591;47.080;22.214;2022-09-09T08:21:23;99363.31;;;26.25;62.87
21803;BME280;18591;47.080;22.214;2022-09-09T08:23:26;99355.28;;;26.40;63.37
21803;BME280;18591;47.080;22.214;2022-09-09T08:25:28;99363.59;;;26.48;62.47
21803;BME280;18591;47.080;22.214;2022-09-09T08:27:30;99354.22;;;26.59;63.01
21803;BME280;18591;47.080;22.214;2022-09-09T08:29:34;99360.84;;;26.75;61.69
21803;BME280;18591;47.080;22.214;2022-09-09T08:31:39;99361.56;;;26.85;61.72
21803;BME280;18591;47.080;22.214;2022-09-09T08:33:42;99364.34;;;26.93;61.29
21803;BME280;18591;47.080;22.214;2022-09-09T08:35:50;99364.34;;;27.01;61.82
21803;BME280;18591;47.080;22.214;2022-09-09T08:37:54;99363.00;;;27.13;62.16
21803;BME280;18591;47.080;22.214;2022-09-09T08:39:58;99363.75;;;27.24;61.42
21803;BME280;18591;47.080;22.214;2022-09-09T08:46:47;99371.88;;;27.42;60.79
21803;BME280;18591;47.080;22.214;2022-09-09T08:48:52;99368.75;;;27.45;60.78
21803;BME280;18591;47.080;22.214;2022-09-09T08:50:58;99374.97;;;27.47;61.78
21803;BME280;18591;47.080;22.214;2022-09-09T08:55:35;99372.38;;;27.53;61.01
21803;BME280;18591;47.080;22.214;2022-09-09T08:57:38;99369.97;;;27.67;61.74
21803;BME280;18591;47.080;22.214;2022-09-09T08:59:41;99372.56;;;27.76;61.66
21803;BME280;18591;47.080;22.214;2022-09-09T09:04:19;99376.38;;;27.92;61.83
21803;BME280;18591;47.080;22.214;2022-09-09T09:09:00;99382.25;;;27.89;60.55
21803;BME280;18591;47.080;22.214;2022-09-09T09:11:06;99381.19;;;27.90;60.20
21803;BME280;18591;47.080;22.214;2022-09-09T09:13:20;99378.97;;;27.85;57.36
21803;BME280;18591;47.080;22.214;2022-09-09T09:15:29;99382.75;;;27.84;57.64
21803;BME280;18591;47.080;22.214;2022-09-09T09:17:34;99379.97;;;27.76;56.79
21803;BME280;18591;47.080;22.214;2022-09-09T09:19:41;99384.97;;;27.64;56.30
21803;BME280;18591;47.080;22.214;2022-09-09T09:26:27;99398.94;;;27.46;56.30
21803;BME280;18591;47.080;22.214;2022-09-09T09:28:33;99391.00;;;27.43;57.01
21803;BME280;18591;47.080;22.214;2022-09-09T09:30:57;99390.31;;;27.41;56.96
21803;BME280;18591;47.080;22.214;2022-09-09T09:33:11;99393.25;;;27.40;56.37
21803;BME280;18591;47.080;22.214;2022-09-09T09:35:17;99385.66;;;27.42;57.10
21803;BME280;18591;47.080;22.214;2022-09-09T09:37:28;99387.38;;;27.34;56.30
21803;BME280;18591;47.080;22.214;2022-09-09T09:39:33;99390.28;;;27.33;56.61
21803;BME280;18591;47.080;22.214;2022-09-09T09:42:16;99394.59;;;27.27;55.14
21803;BME280;18591;47.080;22.214;2022-09-09T09:44:32;99399.41;;;27.25;54.89
21803;BME280;18591;47.080;22.214;2022-09-09T09:46:40;99397.19;;;27.21;55.40
21803;BME280;18591;47.080;22.214;2022-09-09T09:48:57;99400.56;;;27.14;54.75
21803;BME280;18591;47.080;22.214;2022-09-09T09:51:12;99390.38;;;27.07;54.52
21803;BME280;18591;47.080;22.214;2022-09-09T09:53:29;99384.16;;;27.05;54.74
21803;BME280;18591;47.080;22.214;2022-09-09T09:55:35;99395.72;;;27.08;55.36
21803;BME280;18591;47.080;22.214;2022-09-09T09:57:37;99397.63;;;27.08;55.38
21803;BME280;18591;47.080;22.214;2022-09-09T09:59:44;99393.13;;;27.07;54.99
21803;BME280;18591;47.080;22.214;2022-09-09T10:02:20;99406.41;;;27.03;54.43
21803;BME280;18591;47.080;22.214;2022-09-09T10:04:29;99398.66;;;27.07;54.82
21803;BME280;18591;47.080;22.214;2022-09-09T10:06:36;99406.06;;;27.06;54.79
21803;BME280;18591;47.080;22.214;2022-09-09T10:08:46;99405.34;;;27.04;54.26
21803;BME280;18591;47.080;22.214;2022-09-09T10:13:18;99400.34;;;27.00;54.00
21803;BME280;18591;47.080;22.214;2022-09-09T10:22:39;99396.94;;;27.14;54.23
21803;BME280;18591;47.080;22.214;2022-09-09T10:24:58;99397.28;;;27.11;54.41
21803;BME280;18591;47.080;22.214;2022-09-09T10:30:10;99394.19;;;27.06;54.73
21803;BME280;18591;47.080;22.214;2022-09-09T10:37:17;99397.28;;;27.03;54.63
21803;BME280;18591;47.080;22.214;2022-09-09T10:39:35;99400.03;;;27.03;55.06
21803;BME280;18591;47.080;22.214;2022-09-09T10:51:12;99395.72;;;27.08;55.83
21803;BME280;18591;47.080;22.214;2022-09-09T10:55:43;99401.81;;;27.20;56.21
21803;BME280;18591;47.080;22.214;2022-09-09T10:57:48;99392.34;;;27.23;55.32
21803;BME280;18591;47.080;22.214;2022-09-09T10:59:55;99402.84;;;27.19;55.36
21803;BME280;18591;47.080;22.214;2022-09-09T11:02:15;99397.66;;;27.16;55.47
21803;BME280;18591;47.080;22.214;2022-09-09T11:04:24;99397.00;;;27.22;55.62
21803;BME280;18591;47.080;22.214;2022-09-09T11:06:36;99399.25;;;27.19;55.87
21803;BME280;18591;47.080;22.214;2022-09-09T11:08:40;99394.75;;;27.18;55.86
21803;BME280;18591;47.080;22.214;2022-09-09T11:13:04;99401.94;;;27.10;54.31
21803;BME280;18591;47.080;22.214;2022-09-09T11:15:20;99400.03;;;27.03;55.02
21803;BME280;18591;47.080;22.214;2022-09-09T11:17:43;99397.59;;;27.00;55.00
21803;BME280;18591;47.080;22.214;2022-09-09T11:19:46;99397.44;;;27.01;55.39
21803;BME280;18591;47.080;22.214;2022-09-09T11:21:49;99401.22;;;27.00;55.56
21803;BME280;18591;47.080;22.214;2022-09-09T11:23:57;99403.28;;;26.98;55.58
21803;BME280;18591;47.080;22.214;2022-09-09T11:26:02;99395.34;;;26.95;56.05
21803;BME280;18591;47.080;22.214;2022-09-09T11:28:28;99402.22;;;26.91;56.37
21803;BME280;18591;47.080;22.214;2022-09-09T11:40:28;99395.00;;;26.98;56.51
21803;BME280;18591;47.080;22.214;2022-09-09T11:42:32;99387.75;;;26.97;56.69
21803;BME280;18591;47.080;22.214;2022-09-09T11:44:34;99395.50;;;26.93;56.79
21803;BME280;18591;47.080;22.214;2022-09-09T11:46:41;99402.22;;;26.91;56.53
21803;BME280;18591;47.080;22.214;2022-09-09T11:48:45;99395.84;;;26.90;56.77
21803;BME280;18591;47.080;22.214;2022-09-09T11:51:00;99389.28;;;26.83;56.95
21803;BME280;18591;47.080;22.214;2022-09-09T11:53:18;99397.69;;;26.82;57.51
21803;BME280;18591;47.080;22.214;2022-09-09T11:55:33;99401.84;;;26.78;57.39
21803;BME280;18591;47.080;22.214;2022-09-09T11:57:36;99401.50;;;26.81;57.13
21803;BME280;18591;47.080;22.214;2022-09-09T11:59:50;99391.31;;;26.81;57.58
21803;BME280;18591;47.080;22.214;2022-09-09T12:02:31;99389.28;;;26.83;58.07
21803;BME280;18591;47.080;22.214;2022-09-09T12:04:40;99395.00;;;26.90;57.29
21803;BME280;18591;47.080;22.214;2022-09-09T12:06:50;99387.94;;;26.96;57.52
21803;BME280;18591;47.080;22.214;2022-09-09T12:11:28;99391.91;;;27.01;56.45
21803;BME280;18591;47.080;22.214;2022-09-09T12:13:33;99373.81;;;26.99;56.71
21803;BME280;18591;47.080;22.214;2022-09-09T12:15:47;99378.75;;;26.87;55.52
21803;BME280;18591;47.080;22.214;2022-09-09T12:17:53;99379.31;;;26.90;56.42
21803;BME280;18591;47.080;22.214;2022-09-09T12:20:02;99374.81;;;26.89;56.43
21803;BME280;18591;47.080;22.214;2022-09-09T12:22:13;99368.66;;;26.96;56.75
21803;BME280;18591;47.080;22.214;2022-09-09T12:24:27;99361.09;;;27.06;56.77
21803;BME280;18591;47.080;22.214;2022-09-09T12:31:14;99358.94;;;27.26;57.13
21803;BME280;18591;47.080;22.214;2022-09-09T12:33:20;99361.00;;;27.32;56.84
21803;BME280;18591;47.080;22.214;2022-09-09T12:35:27;99363.06;;;27.30;56.14
21803;BME280;18591;47.080;22.214;2022-09-09T12:37:52;99348.06;;;27.24;55.67
21803;BME280;18591;47.080;22.214;2022-09-09T12:40:01;99364.94;;;27.29;56.41
21803;BME280;18591;47.080;22.214;2022-09-09T12:42:05;99347.03;;;27.42;56.56
21803;BME280;18591;47.080;22.214;2022-09-09T12:44:09;99359.78;;;27.51;56.19